Time;durP1;ratioP1;P1;durP2;ratioP2;P2;SDS_P1;SDS_P2;PMS_P1;PMS_P2;Temp;Humidity;BMP_temperature;BMP_pressure;BME280_temperature;BME280_humidity;BME280_pressure;Samples;Min_cycle;Max_cycle;Signal;HPM_P1;HPM_P2
2022/06/25 00:01:58;;;;;;;114.47;67.78;;;16.30;99.90;;;;;;5075150;28;20079;-24
2022/06/25 00:07:08;;;;;;;135.38;75.47;;;16.30;99.90;;;;;;5075874;28;20391;-24
2022/06/25 00:09:33;;;;;;;128.90;72.60;;;16.30;99.90;;;;;;5074955;28;20045;-24
2022/06/25 00:14:43;;;;;;;143.45;83.55;;;16.30;99.90;;;;;;5074524;28;20494;-24
2022/06/25 00:17:09;;;;;;;126.00;75.88;;;16.30;99.90;;;;;;5074700;28;20044;-24
2022/06/25 00:19:35;;;;;;;124.35;75.40;;;16.30;99.90;;;;;;5073782;28;20098;-24
2022/06/25 00:22:00;;;;;;;121.35;74.50;;;16.30;99.90;;;;;;5074732;28;20045;-24
2022/06/25 00:24:26;;;;;;;127.90;74.93;;;16.30;99.90;;;;;;5074667;28;20040;-24
2022/06/25 00:26:52;;;;;;;110.32;71.18;;;16.20;99.90;;;;;;5074925;28;20048;-24
2022/06/25 00:29:17;;;;;;;145.05;82.85;;;16.20;99.90;;;;;;5074529;28;20049;-24
2022/06/25 00:31:43;;;;;;;123.82;76.43;;;16.10;99.90;;;;;;5073298;28;20051;-24
2022/06/25 00:34:09;;;;;;;97.72;64.68;;;16.10;99.90;;;;;;5073962;28;20060;-24
2022/06/25 00:36:35;;;;;;;105.60;66.65;;;16.00;99.90;;;;;;5074323;28;20133;-24
2022/06/25 00:39:01;;;;;;;99.93;63.72;;;16.00;99.90;;;;;;5074405;28;20084;-24
2022/06/25 00:41:28;;;;;;;92.68;61.75;;;16.00;99.90;;;;;;5074870;28;20052;-24
2022/06/25 00:43:54;;;;;;;99.75;63.25;;;16.00;99.90;;;;;;5074314;28;20402;-24
2022/06/25 00:46:19;;;;;;;100.75;61.50;;;16.00;99.90;;;;;;5074541;28;20037;-24
2022/06/25 00:48:45;;;;;;;92.85;61.55;;;16.00;99.90;;;;;;5056628;28;20117;-24
2022/06/25 00:51:13;;;;;;;108.72;69.70;;;15.90;99.90;;;;;;5074218;28;20052;-24
2022/06/25 00:53:44;;;;;;;107.13;65.55;;;16.00;99.90;;;;;;5074114;28;20052;-24
2022/06/25 00:56:13;;;;;;;108.57;65.53;;;16.00;99.90;;;;;;5073997;28;20367;-24
2022/06/25 00:58:43;;;;;;;120.13;72.55;;;16.00;99.90;;;;;;5074323;28;20114;-24
2022/06/25 01:01:09;;;;;;;111.10;70.75;;;15.90;99.90;;;;;;5072818;28;20555;-24
2022/06/25 01:03:38;;;;;;;100.93;68.05;;;15.90;99.90;;;;;;5074419;28;20052;-24
2022/06/25 01:06:05;;;;;;;117.20;71.43;;;15.90;99.90;;;;;;5074746;28;20048;-24
2022/06/25 01:08:33;;;;;;;106.88;70.13;;;15.90;99.90;;;;;;5073936;28;20106;-24
2022/06/25 01:11:00;;;;;;;102.65;65.63;;;15.90;99.90;;;;;;5073860;28;20079;-24
2022/06/25 01:13:26;;;;;;;102.30;66.63;;;15.90;99.90;;;;;;5073756;28;20499;-24
2022/06/25 01:15:51;;;;;;;100.50;63.03;;;15.90;99.90;;;;;;5072627;28;20131;-24
2022/06/25 01:18:17;;;;;;;92.10;64.00;;;15.90;99.90;;;;;;5073795;28;20091;-24
2022/06/25 01:20:43;;;;;;;103.47;63.60;;;15.90;99.90;;;;;;5073800;28;20044;-24
2022/06/25 01:23:10;;;;;;;105.55;69.70;;;15.80;99.90;;;;;;5073743;28;20055;-24
2022/06/25 01:25:37;;;;;;;101.15;65.57;;;15.90;99.90;;;;;;5073557;28;20048;-24
2022/06/25 01:28:04;;;;;;;108.45;68.50;;;15.90;99.90;;;;;;5072498;28;20494;-24
2022/06/25 01:30:31;;;;;;;95.50;63.13;;;15.90;99.90;;;;;;5073499;28;20048;-24
2022/06/25 01:32:57;;;;;;;101.82;63.15;;;15.80;99.90;;;;;;5073664;28;20041;-24
2022/06/25 01:35:23;;;;;;;102.63;64.35;;;15.80;99.90;;;;;;5074357;28;20041;-24
2022/06/25 01:37:49;;;;;;;102.10;59.00;;;15.80;99.90;;;;;;5072342;28;20044;-24
2022/06/25 01:40:15;;;;;;;89.47;61.20;;;15.70;99.90;;;;;;5073579;28;20044;-24
2022/06/25 01:42:59;;;;;;;93.60;61.33;;;15.70;99.90;;;;;;5072660;28;20389;-24
2022/06/25 01:45:31;;;;;;;102.90;65.28;;;15.70;99.90;;;;;;5075398;28;20040;-24
2022/06/25 01:47:58;;;;;;;99.63;62.65;;;15.70;99.90;;;;;;5077635;28;20052;-24
2022/06/25 01:50:24;;;;;;;102.55;64.25;;;15.60;99.90;;;;;;5077661;28;20487;-24
2022/06/25 01:52:50;;;;;;;104.57;67.20;;;15.60;99.90;;;;;;5077433;28;20056;-24
2022/06/25 01:55:16;;;;;;;109.95;66.95;;;15.60;99.90;;;;;;5078294;28;20048;-24
2022/06/25 01:57:43;;;;;;;116.95;70.20;;;15.60;99.90;;;;;;5076541;28;20079;-24
2022/06/25 02:00:19;;;;;;;116.57;72.32;;;15.60;99.90;;;;;;5060620;28;20060;-24
2022/06/25 02:02:45;;;;;;;117.55;69.93;;;15.60;99.90;;;;;;5077400;28;20528;-24
2022/06/25 02:05:12;;;;;;;108.78;64.47;;;15.60;99.90;;;;;;5075894;28;20402;-24
2022/06/25 02:07:39;;;;;;;109.82;69.07;;;15.50;99.90;;;;;;5077845;28;20379;-24
2022/06/25 02:10:05;;;;;;;116.80;68.38;;;15.50;99.90;;;;;;5075969;28;20102;-24
2022/06/25 02:12:31;;;;;;;104.72;66.10;;;15.50;99.90;;;;;;5076964;28;20052;-24
2022/06/25 02:14:56;;;;;;;108.88;65.68;;;15.50;99.90;;;;;;5077673;28;20482;-24
2022/06/25 02:17:22;;;;;;;110.50;63.97;;;15.40;99.90;;;;;;5077613;28;20433;-24
2022/06/25 02:19:48;;;;;;;130.48;73.57;;;15.40;99.90;;;;;;5077037;28;20135;-24
2022/06/25 02:22:14;;;;;;;103.53;63.55;;;15.40;99.90;;;;;;5077013;28;20051;-24
2022/06/25 02:24:42;;;;;;;104.80;65.45;;;15.40;99.90;;;;;;5075660;28;20123;-24
2022/06/25 02:27:08;;;;;;;120.78;70.78;;;15.40;99.90;;;;;;5076874;28;20076;-24
2022/06/25 02:29:34;;;;;;;105.22;64.80;;;15.40;99.90;;;;;;5076864;28;20044;-24
2022/06/25 02:32:00;;;;;;;113.88;69.63;;;15.40;99.90;;;;;;5076824;28;20044;-24
2022/06/25 02:34:25;;;;;;;96.35;64.68;;;15.40;99.90;;;;;;5077046;28;20044;-23
2022/06/25 02:36:52;;;;;;;90.93;60.50;;;15.40;99.90;;;;;;5076669;28;20470;-23
2022/06/25 02:39:18;;;;;;;93.65;60.88;;;15.40;99.90;;;;;;5076685;28;20052;-23
2022/06/25 02:41:44;;;;;;;95.88;60.85;;;15.30;99.90;;;;;;5075785;28;20474;-23
2022/06/25 02:44:10;;;;;;;91.15;59.55;;;15.30;99.90;;;;;;5075487;28;20056;-23
2022/06/25 02:46:38;;;;;;;86.93;57.42;;;15.30;99.90;;;;;;5076578;28;20036;-23
2022/06/25 02:49:04;;;;;;;77.78;53.80;;;15.30;99.90;;;;;;5076466;28;20051;-23
2022/06/25 02:51:30;;;;;;;80.95;55.40;;;15.30;99.90;;;;;;5074940;28;20041;-23
2022/06/25 02:53:56;;;;;;;86.55;57.90;;;15.30;99.90;;;;;;5076419;28;20067;-23
2022/06/25 02:59:07;;;;;;;72.55;48.88;;;15.30;99.90;;;;;;5076378;28;20087;-23
2022/06/25 03:01:32;;;;;;;72.63;51.67;;;15.20;99.90;;;;;;5076831;28;20040;-23
2022/06/25 03:03:58;;;;;;;80.05;50.03;;;15.20;99.90;;;;;;5076263;28;20397;-23
2022/06/25 03:06:25;;;;;;;74.22;53.35;;;15.30;99.90;;;;;;5076603;28;20450;-23
2022/06/25 03:08:50;;;;;;;69.78;48.20;;;15.30;99.90;;;;;;5075983;28;20052;-23
2022/06/25 03:11:17;;;;;;;70.90;48.22;;;15.20;99.90;;;;;;5076143;28;20041;-23
2022/06/25 03:13:42;;;;;;;57.33;42.50;;;15.20;99.90;;;;;;5075672;28;20478;-23
2022/06/25 03:16:09;;;;;;;61.28;45.13;;;15.20;99.90;;;;;;5075939;28;20136;-23
2022/06/25 03:18:36;;;;;;;68.35;46.28;;;15.20;99.90;;;;;;5076826;28;20044;-23
2022/06/25 03:21:02;;;;;;;57.05;41.20;;;15.20;99.90;;;;;;5075570;28;20048;-23
2022/06/25 03:23:28;;;;;;;61.10;43.22;;;15.20;99.90;;;;;;5058091;28;20051;-23
2022/06/25 03:25:54;;;;;;;56.30;40.90;;;15.20;99.90;;;;;;5075888;28;20120;-23
2022/06/25 03:28:20;;;;;;;62.03;43.17;;;15.20;99.90;;;;;;5075782;28;20537;-23
2022/06/25 03:30:46;;;;;;;55.17;41.03;;;15.20;99.90;;;;;;5074583;28;20045;-23
2022/06/25 03:33:13;;;;;;;56.28;42.50;;;15.30;99.90;;;;;;5075996;28;20118;-23
2022/06/25 03:35:39;;;;;;;60.00;44.67;;;15.20;99.90;;;;;;5075268;28;20474;-23
2022/06/25 03:38:05;;;;;;;61.13;42.17;;;15.30;99.90;;;;;;5075649;28;20445;-23
2022/06/25 03:40:31;;;;;;;52.25;41.97;;;15.30;99.90;;;;;;5075589;28;20055;-23
2022/06/25 03:42:58;;;;;;;57.38;43.47;;;15.30;99.90;;;;;;5075794;28;20048;-23
2022/06/25 03:45:26;;;;;;;52.92;40.05;;;15.30;99.90;;;;;;5075748;28;20048;-23
2022/06/25 03:47:52;;;;;;;54.53;40.13;;;15.30;99.90;;;;;;5075392;28;20094;-22
2022/06/25 03:50:19;;;;;;;47.45;36.35;;;15.30;99.90;;;;;;5074128;28;20379;-23
2022/06/25 03:52:46;;;;;;;51.75;38.17;;;15.30;99.90;;;;;;5075323;28;20055;-23
2022/06/25 03:55:13;;;;;;;51.85;40.80;;;15.30;99.90;;;;;;5074008;28;20498;-23
2022/06/25 03:57:39;;;;;;;47.58;38.28;;;15.40;99.90;;;;;;5075771;28;20044;-23
2022/06/25 04:00:06;;;;;;;45.90;37.47;;;15.40;99.90;;;;;;5075201;28;20087;-23
2022/06/25 04:02:33;;;;;;;49.28;36.38;;;15.40;99.90;;;;;;5073578;28;20119;-23
2022/06/25 04:04:59;;;;;;;47.88;39.78;;;15.40;99.90;;;;;;5073363;28;20159;-23
2022/06/25 04:07:25;;;;;;;44.53;36.70;;;15.50;99.90;;;;;;5074391;28;20127;-23
2022/06/25 04:09:51;;;;;;;44.92;34.83;;;15.50;99.90;;;;;;5040486;28;20048;-23
2022/06/25 04:12:17;;;;;;;46.75;35.75;;;15.50;99.90;;;;;;5074952;28;20044;-23
2022/06/25 04:14:42;;;;;;;39.28;33.63;;;15.60;99.90;;;;;;5074494;28;20071;-23
2022/06/25 04:17:08;;;;;;;40.65;34.58;;;15.60;99.90;;;;;;5073633;28;20044;-23
2022/06/25 04:19:43;;;;;;;41.45;34.13;;;15.60;99.90;;;;;;5074411;28;20127;-23
2022/06/25 04:22:12;;;;;;;44.55;36.40;;;15.70;99.90;;;;;;5075617;28;20098;-23
2022/06/25 04:24:40;;;;;;;41.60;35.10;;;15.70;99.90;;;;;;5074674;28;20048;-23
2022/06/25 04:27:07;;;;;;;37.22;31.30;;;15.70;99.90;;;;;;5074383;28;20513;-23
2022/06/25 04:29:33;;;;;;;31.02;27.80;;;15.80;99.90;;;;;;5074584;28;20047;-23
2022/06/25 04:31:59;;;;;;;34.97;29.55;;;15.90;99.90;;;;;;5073313;28;20393;-23
2022/06/25 04:34:25;;;;;;;30.60;27.35;;;15.90;99.90;;;;;;5074793;28;20098;-23
2022/06/25 04:36:51;;;;;;;34.10;28.08;;;16.00;99.90;;;;;;5074084;28;20477;-23
2022/06/25 04:39:17;;;;;;;27.95;24.95;;;16.10;99.90;;;;;;5074453;28;20076;-23
2022/06/25 04:41:45;;;;;;;27.42;24.42;;;16.10;99.90;;;;;;5074640;28;20051;-23
2022/06/25 04:44:11;;;;;;;29.58;26.02;;;16.20;99.90;;;;;;5074386;28;20140;-23
2022/06/25 04:46:37;;;;;;;26.33;23.60;;;16.20;99.90;;;;;;5074254;28;20083;-23
2022/06/25 04:49:03;;;;;;;25.30;21.05;;;16.30;99.90;;;;;;5074199;28;20079;-23
2022/06/25 04:51:28;;;;;;;24.42;21.90;;;16.30;99.90;;;;;;5074996;28;20048;-23
2022/06/25 04:53:57;;;;;;;22.73;20.40;;;16.40;99.90;;;;;;5074900;28;20064;-23
2022/06/25 04:56:28;;;;;;;26.42;21.42;;;16.40;99.90;;;;;;5073659;28;20557;-23
2022/06/25 04:58:55;;;;;;;22.00;19.65;;;16.50;99.90;;;;;;5073997;28;20094;-23
2022/06/25 05:01:22;;;;;;;21.05;19.02;;;16.50;99.90;;;;;;5074209;28;20052;-23
2022/06/25 05:03:47;;;;;;;21.50;18.98;;;16.80;99.90;;;;;;5073550;28;20119;-23
2022/06/25 05:06:14;;;;;;;18.85;16.50;;;17.30;99.90;;;;;;5073357;28;20049;-23
2022/06/25 05:08:40;;;;;;;16.73;14.27;;;17.90;99.90;;;;;;5074171;28;20519;-23
2022/06/25 05:11:06;;;;;;;14.25;12.45;;;18.40;99.90;;;;;;5073554;28;20487;-24
2022/06/25 05:13:32;;;;;;;14.07;12.65;;;19.10;99.90;;;;;;5073798;28;20044;-24
2022/06/25 05:15:58;;;;;;;15.18;11.75;;;19.70;99.90;;;;;;5073453;28;20040;-24
2022/06/25 05:18:23;;;;;;;12.57;11.25;;;20.10;99.90;;;;;;5072611;28;20048;-23
2022/06/25 05:20:49;;;;;;;12.40;11.25;;;20.50;99.90;;;;;;5072990;28;20061;-24
2022/06/25 05:23:15;;;;;;;12.73;10.30;;;20.90;1.00;;;;;;5074019;28;20067;-23
2022/06/25 05:25:41;;;;;;;10.20;9.20;;;21.20;99.90;;;;;;5073717;28;20178;-24
2022/06/25 05:28:07;;;;;;;10.75;9.77;;;21.30;1.00;;;;;;5074273;28;20048;-24
2022/06/25 05:30:34;;;;;;;11.40;9.40;;;21.30;99.90;;;;;;5073722;28;20052;-24
2022/06/25 05:33:00;;;;;;;10.90;9.90;;;21.50;99.90;;;;;;5073648;28;20057;-24
2022/06/25 05:35:26;;;;;;;11.60;9.57;;;21.70;1.00;;;;;;5073265;28;20037;-23
2022/06/25 05:37:52;;;;;;;10.23;9.25;;;21.70;99.90;;;;;;5073530;28;20048;-24
2022/06/25 05:40:18;;;;;;;9.13;8.20;;;21.60;99.90;;;;;;5072629;28;20116;-23
2022/06/25 05:42:44;;;;;;;10.35;8.85;;;21.50;99.90;;;;;;5073556;28;20059;-24
2022/06/25 05:45:10;;;;;;;12.00;8.85;;;21.60;99.90;;;;;;5074067;28;20048;-23
2022/06/25 05:47:37;;;;;;;16.60;9.57;;;21.70;99.90;;;;;;5073479;28;20052;-23
2022/06/25 05:50:03;;;;;;;7.57;6.72;;;21.80;99.90;;;;;;5039298;28;20056;-23
2022/06/25 05:52:29;;;;;;;12.15;8.68;;;21.60;99.90;;;;;;5073489;28;20062;-24
2022/06/25 05:54:55;;;;;;;8.90;7.78;;;21.60;99.90;;;;;;5073436;28;20084;-23
2022/06/25 05:57:20;;;;;;;8.73;7.53;;;21.70;99.90;;;;;;5073310;28;20152;-23
2022/06/25 05:59:46;;;;;;;9.57;8.00;;;21.80;83.20;;;;;;5073387;28;20040;-23
2022/06/25 06:02:12;;;;;;;10.95;8.00;;;21.80;49.00;;;;;;5073400;28;20048;-23
2022/06/25 06:04:38;;;;;;;9.13;6.88;;;21.80;87.40;;;;;;5073414;28;20048;-24
2022/06/25 06:07:04;;;;;;;9.50;7.35;;;22.00;53.20;;;;;;5073914;28;20451;-23
2022/06/25 06:09:32;;;;;;;7.97;7.20;;;22.10;1.00;;;;;;5073299;28;20044;-23
2022/06/25 06:11:59;;;;;;;8.52;7.72;;;22.20;1.00;;;;;;5055616;28;20087;-23
2022/06/25 06:14:25;;;;;;;10.98;7.00;;;22.40;1.00;;;;;;5073719;28;20044;-24
2022/06/25 06:16:51;;;;;;;8.20;6.78;;;22.50;1.00;;;;;;5072024;28;20044;-24
2022/06/25 06:19:17;;;;;;;8.63;6.63;;;22.40;1.00;;;;;;5073204;28;20143;-24
2022/06/25 06:21:42;;;;;;;8.93;7.32;;;22.50;1.00;;;;;;5073808;28;20052;-23
2022/06/25 06:24:08;;;;;;;10.68;7.55;;;22.70;1.00;;;;;;5071948;28;20052;-23
2022/06/25 06:26:35;;;;;;;7.95;6.40;;;22.80;1.00;;;;;;5073458;28;20040;-24
2022/06/25 06:29:01;;;;;;;10.57;6.82;;;23.00;1.00;;;;;;5073128;28;20045;-24
2022/06/25 06:31:26;;;;;;;9.55;6.78;;;23.10;1.00;;;;;;5074227;28;20052;-23
2022/06/25 06:33:52;;;;;;;9.02;6.20;;;23.20;1.00;;;;;;5076815;28;20158;-23
2022/06/25 06:36:18;;;;;;;9.18;7.63;;;23.10;99.90;;;;;;5076096;28;20076;-24
2022/06/25 06:38:44;;;;;;;10.00;6.97;;;23.00;1.00;;;;;;5076745;28;20051;-24
2022/06/25 06:41:09;;;;;;;7.65;5.93;;;23.00;1.00;;;;;;5076382;28;20145;-24
2022/06/25 06:43:36;;;;;;;8.27;5.88;;;23.10;99.90;;;;;;5077483;28;20055;-24
2022/06/25 06:46:05;;;;;;;9.13;6.40;;;23.00;99.90;;;;;;5075675;28;20052;-24
2022/06/25 06:48:31;;;;;;;6.28;5.68;;;23.30;99.90;;;;;;5076551;28;20079;-24
2022/06/25 06:50:59;;;;;;;8.20;5.95;;;23.50;99.90;;;;;;5077333;28;20047;-24
2022/06/25 06:53:25;;;;;;;6.72;5.78;;;23.30;99.90;;;;;;5076741;28;20071;-24
2022/06/25 06:55:51;;;;;;;7.30;5.88;;;23.40;99.90;;;;;;5075163;28;20153;-24
2022/06/25 06:58:20;;;;;;;9.48;6.10;;;23.50;99.90;;;;;;5075212;28;20075;-23
2022/06/25 07:00:45;;;;;;;9.93;6.18;;;23.80;99.90;;;;;;5076018;28;20429;-24
2022/06/25 07:03:11;;;;;;;7.88;4.82;;;24.20;99.90;;;;;;5076321;28;20044;-24
2022/06/25 07:05:37;;;;;;;5.88;4.20;;;24.20;99.90;;;;;;5074803;28;20072;-24
2022/06/25 07:08:02;;;;;;;5.80;4.72;;;24.10;99.90;;;;;;5076209;28;20091;-24
2022/06/25 07:10:31;;;;;;;5.88;4.30;;;24.00;99.90;;;;;;5076168;28;20044;-24
2022/06/25 07:12:57;;;;;;;9.00;5.40;;;24.00;99.90;;;;;;5076016;28;20044;-24
2022/06/25 07:15:22;;;;;;;9.27;5.18;;;24.20;99.90;;;;;;5076569;28;20178;-24
2022/06/25 07:17:48;;;;;;;5.15;3.83;;;24.60;99.90;;;;;;5076015;28;20040;-24
2022/06/25 07:20:14;;;;;;;5.95;4.55;;;24.70;91.70;;;;;;5076039;28;20047;-24
2022/06/25 07:22:39;;;;;;;7.47;4.45;;;24.90;68.60;;;;;;5074720;28;20052;-24
2022/06/25 07:25:06;;;;;;;5.20;4.15;;;24.90;81.80;;;;;;5075911;28;20052;-24
2022/06/25 07:27:32;;;;;;;6.03;4.82;;;24.90;67.60;;;;;;5074606;28;20063;-24
2022/06/25 07:30:00;;;;;;;6.75;3.97;;;25.10;40.40;;;;;;5075126;28;20041;-24
2022/06/25 07:32:28;;;;;;;4.35;3.63;;;25.00;24.20;;;;;;5075761;28;20094;-24
2022/06/25 07:34:54;;;;;;;6.13;4.45;;;24.80;32.20;;;;;;5075703;28;20040;-24
2022/06/25 07:37:20;;;;;;;7.90;3.63;;;24.60;80.20;;;;;;5075906;28;20059;-24
2022/06/25 07:39:48;;;;;;;4.72;4.22;;;24.70;93.20;;;;;;5074687;28;20391;-24
2022/06/25 07:42:13;;;;;;;6.68;4.18;;;24.60;96.90;;;;;;5075612;28;20041;-24
2022/06/25 07:44:41;;;;;;;5.72;3.20;;;24.80;97.90;;;;;;5075176;28;20106;-24
2022/06/25 07:47:07;;;;;;;5.75;3.35;;;24.90;11.50;;;;;;5075451;28;20040;-24
2022/06/25 07:51:56;;;;;;;7.85;3.72;;;24.70;18.10;;;;;;5075432;28;20097;-24
2022/06/25 07:52:21;;;;;;;3.63;2.97;;;24.80;3.00;;;;;;5074029;28;20051;-24
2022/06/25 07:54:49;;;;;;;4.45;2.75;;;25.10;1.00;;;;;;5074378;28;20041;-24
2022/06/25 07:57:17;;;;;;;4.00;2.35;;;25.20;1.00;;;;;;5057684;28;20044;-25
2022/06/25 07:59:43;;;;;;;3.10;2.67;;;24.90;1.00;;;;;;5074025;28;20390;-24
2022/06/25 08:02:08;;;;;;;7.72;3.15;;;24.90;1.00;;;;;;5075717;28;20041;-24
2022/06/25 08:04:34;;;;;;;3.75;2.38;;;24.90;1.00;;;;;;5073626;28;20051;-25
2022/06/25 08:07:00;;;;;;;4.72;2.53;;;24.80;1.00;;;;;;5075944;28;20048;-24
2022/06/25 08:09:26;;;;;;;3.97;2.40;;;24.50;1.00;;;;;;5074032;28;20107;-24
2022/06/25 08:11:52;;;;;;;4.82;3.17;;;23.90;1.00;;;;;;5074930;28;20051;-24
2022/06/25 08:14:18;;;;;;;5.25;2.70;;;23.90;9.50;;;;;;5074829;28;20041;-24
2022/06/25 08:16:43;;;;;;;4.65;2.83;;;24.50;1.00;;;;;;5075054;28;20043;-24
2022/06/25 08:19:09;;;;;;;3.08;2.25;;;25.20;1.00;;;;;;5074200;28;20095;-24
2022/06/25 08:21:35;;;;;;;4.78;2.58;;;26.40;1.00;;;;;;5075620;28;20043;-24
2022/06/25 08:24:06;;;;;;;5.00;2.10;;;26.70;99.90;;;;;;5074977;28;20434;-24
2022/06/25 08:26:34;;;;;;;3.97;1.98;;;25.90;99.90;;;;;;5074714;28;20474;-24
2022/06/25 08:28:59;;;;;;;4.35;2.17;;;25.70;99.90;;;;;;5074585;28;20505;-24
2022/06/25 08:31:25;;;;;;;4.20;1.80;;;25.20;99.90;;;;;;5075125;28;20109;-24
2022/06/25 08:33:51;;;;;;;3.35;1.85;;;25.40;99.90;;;;;;5075076;28;20055;-24
2022/06/25 08:36:17;;;;;;;3.88;1.90;;;25.30;99.90;;;;;;5074155;28;20354;-24
2022/06/25 08:38:48;;;;;;;4.15;2.10;;;24.60;99.90;;;;;;5074435;28;20052;-24
2022/06/25 08:41:14;;;;;;;6.30;2.63;;;24.00;1.00;;;;;;5057140;28;20052;-24
2022/06/25 08:43:41;;;;;;;5.95;2.30;;;23.60;1.00;;;;;;5074780;28;20417;-24
2022/06/25 08:46:09;;;;;;;13.75;4.50;;;23.30;1.00;;;;;;5074244;28;20041;-24
2022/06/25 08:48:37;;;;;;;5.45;2.55;;;23.00;1.00;;;;;;5074138;28;20040;-24
2022/06/25 08:51:04;;;;;;;6.28;2.67;;;23.20;4.70;;;;;;5075027;28;20044;-24
2022/06/25 08:53:34;;;;;;;5.70;2.75;;;23.80;1.00;;;;;;5072828;28;20482;-24
2022/06/25 08:56:03;;;;;;;3.70;2.30;;;24.30;99.90;;;;;;5074800;28;20047;-24
2022/06/25 08:58:32;;;;;;;5.43;2.05;;;24.60;99.90;;;;;;5072743;28;20466;-24
2022/06/25 09:01:00;;;;;;;6.60;2.40;;;25.10;99.90;;;;;;5073927;28;20070;-24
2022/06/25 09:03:26;;;;;;;3.50;2.42;;;25.40;99.90;;;;;;5073933;28;20105;-24
2022/06/25 09:05:52;;;;;;;5.68;3.25;;;25.60;99.90;;;;;;5073764;28;20052;-25
2022/06/25 09:08:17;;;;;;;6.15;2.30;;;25.80;99.90;;;;;;5074161;28;20123;-25
2022/06/25 09:10:53;;;;;;;5.22;2.05;;;26.00;99.90;;;;;;5073908;28;20544;-25
2022/06/25 09:13:25;;;;;;;4.57;1.50;;;26.10;99.90;;;;;;5074429;28;20098;-25
2022/06/25 09:15:51;;;;;;;4.90;1.95;;;25.70;48.10;;;;;;5073846;28;20042;-25
2022/06/25 09:18:19;;;;;;;5.90;1.70;;;26.00;99.90;;;;;;5073825;28;20131;-24
2022/06/25 09:21:08;;;;;;;4.70;1.98;;;26.10;99.90;;;;;;5072794;28;20498;-25
2022/06/25 09:23:35;;;;;;;5.72;1.50;;;26.90;99.30;;;;;;5072943;28;20045;-25
2022/06/25 09:26:05;;;;;;;3.03;1.55;;;26.50;55.20;;;;;;5073766;28;20086;-25
2022/06/25 09:28:40;;;;;;;3.90;1.58;;;25.80;97.50;;;;;;5073768;28;20074;-25
2022/06/25 09:31:07;;;;;;;9.98;2.10;;;24.90;95.90;;;;;;5072566;28;20505;-24
2022/06/25 09:33:36;;;;;;;4.53;1.90;;;24.50;99.90;;;;;;5073969;28;20037;-24
2022/06/25 09:36:03;;;;;;;4.97;1.98;;;24.50;99.90;;;;;;5073540;28;20498;-25
2022/06/25 09:38:31;;;;;;;3.65;1.95;;;24.60;99.90;;;;;;5073614;28;20051;-25
2022/06/25 09:40:59;;;;;;;4.85;2.35;;;24.20;99.90;;;;;;5073264;28;20449;-24
2022/06/25 09:43:29;;;;;;;3.72;1.67;;;24.20;99.90;;;;;;5073554;28;20174;-24
2022/06/25 09:45:56;;;;;;;2.65;1.65;;;24.50;99.90;;;;;;5074114;28;20470;-25
2022/06/25 09:48:27;;;;;;;5.95;1.48;;;24.70;99.90;;;;;;5072722;28;20044;-25
2022/06/25 09:51:19;;;;;;;2.85;1.30;;;25.20;99.90;;;;;;5073561;28;20102;-25
2022/06/25 09:53:50;;;;;;;2.90;1.60;;;25.70;99.90;;;;;;5073135;28;20056;-25
2022/06/25 09:56:29;;;;;;;6.13;1.80;;;25.80;99.90;;;;;;5073389;28;20044;-25
2022/06/25 09:59:02;;;;;;;3.90;1.50;;;25.80;99.90;;;;;;5074246;28;20097;-25
2022/06/25 10:01:33;;;;;;;4.20;1.10;;;26.00;99.90;;;;;;5074290;28;20052;-25
2022/06/25 10:04:04;;;;;;;3.67;1.35;;;25.70;99.90;;;;;;5073442;28;20055;-25
2022/06/25 10:06:34;;;;;;;3.40;1.33;;;25.70;99.90;;;;;;5074533;28;20052;-25
2022/06/25 10:09:04;;;;;;;2.88;1.40;;;25.70;99.90;;;;;;5077392;28;20125;-25
2022/06/25 10:11:34;;;;;;;3.35;1.25;;;26.10;99.90;;;;;;5077853;28;20098;-25
2022/06/25 10:14:00;;;;;;;5.05;1.10;;;25.90;99.90;;;;;;5076035;28;20105;-25
2022/06/25 10:16:30;;;;;;;2.20;1.20;;;26.30;99.90;;;;;;5076834;28;20478;-25
2022/06/25 10:18:56;;;;;;;3.03;1.00;;;26.50;99.90;;;;;;5078017;28;20090;-25
2022/06/25 10:21:23;;;;;;;2.08;0.70;;;26.90;12.40;;;;;;5076141;28;20478;-25
2022/06/25 10:23:55;;;;;;;3.25;1.10;;;26.70;1.00;;;;;;5077056;28;20056;-26
2022/06/25 10:26:21;;;;;;;2.53;0.63;;;26.70;1.00;;;;;;5077661;28;20047;-26
2022/06/25 10:28:48;;;;;;;3.13;0.90;;;26.50;1.00;;;;;;5076935;28;20331;-25
2022/06/25 10:31:16;;;;;;;3.22;0.85;;;26.50;1.00;;;;;;5076910;28;20044;-26
2022/06/25 10:33:57;;;;;;;3.53;1.23;;;25.90;1.00;;;;;;5077673;28;20122;-25
2022/06/25 10:36:47;;;;;;;2.80;0.95;;;25.40;92.00;;;;;;5077316;28;20041;-25
2022/06/25 10:39:22;;;;;;;3.47;0.80;;;25.20;99.90;;;;;;5076659;28;20075;-25
2022/06/25 10:45:07;;;;;;;2.22;0.80;;;25.60;64.00;;;;;;5076692;28;20053;-25
2022/06/25 10:47:47;;;;;;;2.20;0.82;;;25.10;99.90;;;;;;5076270;28;20391;-25
2022/06/25 10:50:22;;;;;;;4.40;1.30;;;24.60;99.90;;;;;;5076601;28;20055;-25
2022/06/25 10:53:03;;;;;;;3.13;1.30;;;24.70;99.90;;;;;;5076527;28;20048;-26
2022/06/25 10:55:29;;;;;;;10.80;2.30;;;25.20;74.80;;;;;;5076114;28;20520;-25
2022/06/25 10:58:27;;;;;;;3.28;1.10;;;25.50;99.90;;;;;;5076382;28;20061;-25
2022/06/25 11:00:55;;;;;;;1.48;1.05;;;26.00;99.90;;;;;;5076688;28;20441;-25
2022/06/25 11:03:32;;;;;;;1.85;1.13;;;26.70;88.90;;;;;;5075323;28;20063;-25
2022/06/25 11:06:22;;;;;;;4.90;1.08;;;27.70;57.00;;;;;;5076354;28;20106;-25
2022/06/25 11:08:49;;;;;;;1.40;0.60;;;27.80;1.00;;;;;;5076288;28;20470;-25
2022/06/25 11:11:26;;;;;;;2.47;0.60;;;28.10;1.00;;;;;;5076184;28;20045;-25
2022/06/25 11:13:53;;;;;;;4.43;1.00;;;28.50;99.90;;;;;;5058632;28;20102;-25
2022/06/25 11:16:20;;;;;;;2.70;0.60;;;28.40;1.00;;;;;;5075972;28;20083;-25
2022/06/25 11:18:51;;;;;;;1.67;0.40;;;28.00;1.00;;;;;;5075262;28;20052;-25
2022/06/25 11:21:47;;;;;;;2.17;0.50;;;27.30;1.00;;;;;;5076050;28;20051;-25
2022/06/25 11:24:13;;;;;;;3.88;0.68;;;26.20;1.00;;;;;;5071044;28;20060;-25
2022/06/25 11:29:33;;;;;;;2.38;0.50;;;25.40;99.90;;;;;;5075840;28;20049;-25
2022/06/25 11:31:59;;;;;;;2.50;0.75;;;25.30;99.90;;;;;;5076419;28;20103;-25
2022/06/25 11:34:26;;;;;;;1.88;0.90;;;25.40;99.90;;;;;;5074822;28;20060;-25
2022/06/25 11:37:04;;;;;;;2.50;0.82;;;25.20;99.90;;;;;;5075320;28;20543;-25
2022/06/25 11:39:31;;;;;;;1.95;0.70;;;25.00;99.90;;;;;;5074567;28;20044;-25
2022/06/25 11:41:57;;;;;;;2.42;1.40;;;24.70;99.90;;;;;;5058718;28;20128;-25
2022/06/25 11:44:23;;;;;;;3.97;0.82;;;24.70;99.90;;;;;;5075600;28;20139;-25
2022/06/25 11:46:51;;;;;;;1.60;0.55;;;24.50;99.90;;;;;;5076098;28;20124;-25
2022/06/25 11:49:18;;;;;;;2.28;0.85;;;24.20;99.90;;;;;;5074759;28;20052;-25
2022/06/25 11:51:51;;;;;;;3.65;0.90;;;24.00;99.90;;;;;;5075696;28;20094;-25
2022/06/25 11:54:21;;;;;;;2.95;0.98;;;23.90;99.90;;;;;;5076025;28;20524;-25
2022/06/25 11:56:55;;;;;;;2.40;0.85;;;23.70;99.90;;;;;;5075594;28;20053;-25
2022/06/25 11:59:29;;;;;;;1.85;0.75;;;23.60;99.90;;;;;;5075905;28;20044;-25
2022/06/25 12:01:56;;;;;;;1.80;1.10;;;23.40;99.90;;;;;;5074248;28;20055;-24
2022/06/25 12:04:24;;;;;;;2.42;1.00;;;23.20;99.90;;;;;;5075812;28;20052;-25
2022/06/25 12:06:50;;;;;;;3.15;1.00;;;23.20;99.90;;;;;;5075660;28;20376;-25
2022/06/25 12:09:18;;;;;;;2.42;0.90;;;23.00;99.90;;;;;;5074401;28;20052;-25
2022/06/25 12:11:51;;;;;;;2.35;0.77;;;22.90;1.00;;;;;;5075527;28;20145;-25
2022/06/25 12:14:27;;;;;;;2.75;1.80;;;22.80;1.00;;;;;;5074198;28;20048;-24
2022/06/25 12:16:53;;;;;;;5.15;2.85;;;22.50;1.00;;;;;;5073678;28;20045;-24
2022/06/25 12:19:22;;;;;;;5.38;2.90;;;22.00;99.90;;;;;;5074900;28;20083;-24
2022/06/25 12:21:48;;;;;;;6.20;3.17;;;21.60;99.90;;;;;;5073555;28;20050;-24
2022/06/25 12:24:16;;;;;;;8.30;3.63;;;21.20;99.90;;;;;;5074616;28;20054;-24
2022/06/25 12:26:50;;;;;;;3.60;3.25;;;21.00;1.00;;;;;;5075234;28;20042;-24
2022/06/25 12:29:22;;;;;;;8.60;3.22;;;20.90;1.00;;;;;;5075169;28;20052;-24
2022/06/25 12:31:59;;;;;;;5.07;3.75;;;20.80;4.10;;;;;;5074952;28;20391;-23
2022/06/25 12:34:28;;;;;;;7.43;3.70;;;20.80;34.70;;;;;;5073512;28;20066;-24
2022/06/25 12:36:55;;;;;;;6.22;3.60;;;20.80;99.90;;;;;;5074447;28;20044;-24
2022/06/25 12:39:43;;;;;;;6.60;3.50;;;20.80;99.90;;;;;;5074341;28;20048;-24
2022/06/25 12:42:12;;;;;;;4.95;3.08;;;20.90;82.50;;;;;;5075041;28;20094;-24
2022/06/25 12:44:40;;;;;;;7.82;3.22;;;20.90;1.00;;;;;;5074656;28;20371;-24
2022/06/25 12:47:10;;;;;;;7.15;3.63;;;21.00;1.00;;;;;;5074237;28;20045;-24
2022/06/25 12:49:45;;;;;;;6.80;3.67;;;21.10;1.00;;;;;;5074205;28;20131;-24
2022/06/25 12:52:11;;;;;;;9.27;4.03;;;21.20;1.00;;;;;;5073286;28;20044;-24
2022/06/25 12:54:45;;;;;;;6.75;4.03;;;21.20;1.00;;;;;;5072665;28;20407;-24
2022/06/25 12:57:24;;;;;;;5.20;3.17;;;21.30;1.00;;;;;;5074371;28;20486;-24